LSZR Airport Information

Runway Information
Runway 10 Length 0 ft width 0 ft
Elevation 1306 ft Threshold 0 ft Heading 0
Runway 28 Length 0 ft Width 0 ft
Elevation 1306 ft Threshold 0 ft Heading 0
Runway 10L Length 1969 ft width 75 ft
Elevation 0 ft Threshold 0 ft Heading 97
Runway 28R Length 1969 ft Width 75 ft
Elevation 0 ft Threshold 0 ft Heading 277
Runway 10R Length 4922 ft width 98 ft
Elevation 1306 ft Threshold 328 ft Heading 99
Runway 28L Length 4922 ft Width 98 ft
Elevation 1306 ft Threshold 246 ft Heading 279
Airport Frequencies
Type ACC Name ZURICH RAD Frequency 133.9 MHZ
Type ARR Name ZURICH ARR Frequency 119.925 MHZ
Type ATIS Name ATIS Frequency 123.775 MHZ
Type FIS Name Zurich Inf Frequency 124.7 MHZ
Type GND Name GND Frequency 121.8 MHZ
Type TWR Name TWR Frequency 118.65 MHZ
Airport Navaids
Airport Weather Information & NOTAM

Deprecated: The each() function is deprecated. This message will be suppressed on further calls in /home/customer/www/peakairlines.org/public_html/lib/functions.php on line 141
ADDS - METARS form results

(2047 UTC 20 September 2020)
Data provider http://aviationweather.gov/metar/data/
 
METAR text: LSZR 202020Z AUTO 22002KT CAVOK 18/16 Q1015
Conditions at: LSZR (RHEINECK/ALTENRH, CH) observed 2020 UTC 20 September 2020
Temperature: 18.0°C (64°F)
Dewpoint: 16.0°C (61°F) [RH = 88%]
Pressure (altimeter): 29.97 inches Hg (1015.0 mb)
Winds: from the SW (220 degrees) at 2 MPH (2 knots; 1.0 m/s)
Visibility: 6 or more miles (10+ km)
Ceiling: ceiling and visibility are OK
Clouds: unknown
Weather: no significant weather observed at this time

METAR text: LSZR 201950Z AUTO VRB01KT CAVOK 18/16 Q1015
Conditions at: LSZR (RHEINECK/ALTENRH, CH) observed 1950 UTC 20 September 2020
Temperature: 18.0°C (64°F)
Dewpoint: 16.0°C (61°F) [RH = 88%]
Pressure (altimeter): 29.97 inches Hg (1015.0 mb)
Winds: variable direction winds at 1 MPH (1 knots; 0.5 m/s)
Visibility: 6 or more miles (10+ km)
Ceiling: ceiling and visibility are OK
Clouds: unknown
Weather: no significant weather observed at this time

Forecast for: LSZR (RHEINECK/ALTENRH, CH)
Text: TAF LSZR 201425Z 2015/2024 28006KT 7000 NSC
Forecast period: 1500 UTC 20 September 2020 to 0000 UTC 21 September 2020
Forecast type: FROM: standard forecast or significant change
Winds: from the W (280 degrees) at 7 MPH (6 knots; 3.1 m/s)
Visibility: 4 miles (7 km)
Ceiling: unknown
Clouds: missing
Weather: no significant weather forecast for this period